createdAt,value
2019-03-21T00:00:33.272Z,72.00
2019-03-21T00:01:12.823Z,72.25
2019-03-21T00:01:52.420Z,72.22
2019-03-21T00:02:23.706Z,72.41
2019-03-21T00:02:54.951Z,72.20
2019-03-21T00:03:26.215Z,72.39
2019-03-21T00:04:04.824Z,72.51
2019-03-21T00:04:36.189Z,72.53
2019-03-21T00:05:10.366Z,72.97
2019-03-21T00:05:41.588Z,73.04
2019-03-21T00:06:14.346Z,73.28
2019-03-21T00:06:45.558Z,73.40
2019-03-21T00:07:16.720Z,73.31
2019-03-21T00:07:47.928Z,73.63
2019-03-21T00:08:19.077Z,73.64
2019-03-21T00:08:50.290Z,73.62
2019-03-21T00:09:21.460Z,73.88
2019-03-21T00:10:15.948Z,73.77
2019-03-21T00:11:30.520Z,73.96
2019-03-21T00:12:06.830Z,73.99
2019-03-21T00:12:37.980Z,74.19
2019-03-21T00:13:09.216Z,74.17
2019-03-21T00:13:41.482Z,74.22
2019-03-21T00:14:18.341Z,74.31
2019-03-21T00:14:57.997Z,74.25
2019-03-21T00:15:37.658Z,74.25
2019-03-21T00:16:13.585Z,74.52
2019-03-21T00:16:45.053Z,74.50
2019-03-21T00:17:24.945Z,74.52
2019-03-21T00:18:00.279Z,74.58
2019-03-21T00:18:31.501Z,74.58
2019-03-21T00:19:02.732Z,74.67
2019-03-21T00:19:33.965Z,74.72
2019-03-21T00:20:14.925Z,74.69
2019-03-21T00:20:46.112Z,74.59
2019-03-21T00:21:17.337Z,74.61
2019-03-21T00:21:48.575Z,74.63
2019-03-21T00:22:19.807Z,74.60
2019-03-21T00:22:51.057Z,74.51
2019-03-21T00:23:22.249Z,74.53
2019-03-21T00:23:53.537Z,74.60
2019-03-21T00:24:24.787Z,74.56
2019-03-21T00:24:55.992Z,74.49
2019-03-21T00:25:27.170Z,74.56
2019-03-21T00:25:58.343Z,74.48
2019-03-21T00:26:31.385Z,74.65
2019-03-21T00:27:02.822Z,74.67
2019-03-21T00:27:34.027Z,74.60
2019-03-21T00:28:06.213Z,74.64
2019-03-21T00:28:37.382Z,74.55
2019-03-21T00:29:08.673Z,74.59
2019-03-21T00:29:39.860Z,74.61
2019-03-21T00:30:15.351Z,74.62
2019-03-21T00:30:46.534Z,74.60
2019-03-21T00:31:17.726Z,74.79
2019-03-21T00:31:48.960Z,74.69
2019-03-21T00:32:20.196Z,74.80
2019-03-21T00:32:53.128Z,74.87
2019-03-21T00:33:24.354Z,74.97
2019-03-21T00:33:55.658Z,75.00
2019-03-21T00:34:28.357Z,75.24
2019-03-21T00:34:59.614Z,75.11
2019-03-21T00:35:30.836Z,75.25
2019-03-21T00:36:02.012Z,75.32
2019-03-21T00:36:34.253Z,75.19
2019-03-21T00:37:05.514Z,75.24
2019-03-21T00:37:36.832Z,75.42
2019-03-21T00:38:08.058Z,75.50
2019-03-21T00:38:39.401Z,75.59
2019-03-21T00:39:10.732Z,75.70
2019-03-21T00:39:41.981Z,75.78
2019-03-21T00:40:26.741Z,75.82
2019-03-21T00:40:58.313Z,75.96
2019-03-21T00:41:29.474Z,75.95
2019-03-21T00:42:00.699Z,76.02
2019-03-21T00:42:31.846Z,76.03
2019-03-21T00:43:11.299Z,76.08
2019-03-21T00:43:42.447Z,76.27
2019-03-21T00:44:18.142Z,76.64
2019-03-21T00:44:46.811Z,76.51
2019-03-21T00:45:18.041Z,76.44
2019-03-21T00:45:49.223Z,76.47
2019-03-21T00:46:20.452Z,76.56
2019-03-21T00:46:51.601Z,76.53
2019-03-21T00:47:22.815Z,76.80
2019-03-21T00:47:53.979Z,76.88
2019-03-21T00:48:25.590Z,76.97
2019-03-21T00:48:56.764Z,76.95
2019-03-21T00:49:28.329Z,76.98
2019-03-21T00:49:59.496Z,77.25
2019-03-21T00:50:30.804Z,77.23
2019-03-21T00:51:02.038Z,77.28
2019-03-21T00:51:33.373Z,77.30
2019-03-21T00:52:04.616Z,77.26
2019-03-21T00:52:35.946Z,77.34
2019-03-21T00:53:07.185Z,77.46
2019-03-21T00:53:38.405Z,77.47
2019-03-21T00:54:09.609Z,77.47
2019-03-21T00:54:40.745Z,77.52
2019-03-21T00:55:12.348Z,77.54
2019-03-21T00:55:51.352Z,77.57
2019-03-21T00:56:23.922Z,77.67
2019-03-21T00:56:55.318Z,77.64
2019-03-21T00:57:26.509Z,77.67
2019-03-21T00:57:58.713Z,77.92
2019-03-21T00:58:30.061Z,77.78
2019-03-21T00:59:01.220Z,77.74
2019-03-21T00:59:32.421Z,77.85
2019-03-21T01:00:24.413Z,77.84
2019-03-21T01:01:00.117Z,77.91
2019-03-21T01:01:31.339Z,78.06
2019-03-21T01:02:02.586Z,78.13
2019-03-21T01:02:33.761Z,78.05
2019-03-21T01:03:05.621Z,78.13
2019-03-21T01:03:37.304Z,78.12
2019-03-21T01:04:08.503Z,78.15
2019-03-21T01:04:39.701Z,78.05
2019-03-21T01:05:11.019Z,78.21
2019-03-21T01:05:42.709Z,78.15
2019-03-21T01:06:13.965Z,78.16
2019-03-21T01:06:45.397Z,78.13
2019-03-21T01:07:16.663Z,78.17
2019-03-21T01:07:48.240Z,78.13
2019-03-21T01:08:19.446Z,78.15
2019-03-21T01:08:50.655Z,78.14
2019-03-21T01:09:21.930Z,78.23
2019-03-21T01:09:53.091Z,78.23
2019-03-21T01:10:29.570Z,78.20
2019-03-21T01:11:00.735Z,78.31
2019-03-21T01:11:31.952Z,78.36
2019-03-21T01:12:03.209Z,78.36
2019-03-21T01:12:34.411Z,78.41
2019-03-21T01:13:05.569Z,78.42
2019-03-21T01:13:39.075Z,78.46
2019-03-21T01:14:10.243Z,78.38
2019-03-21T01:14:41.439Z,78.41
2019-03-21T01:15:12.607Z,78.47
2019-03-21T01:15:43.799Z,78.45
2019-03-21T01:16:14.980Z,78.53
2019-03-21T01:16:47.205Z,78.54
2019-03-21T01:17:18.353Z,78.62
2019-03-21T01:17:49.577Z,78.77
2019-03-21T01:18:20.749Z,78.67
2019-03-21T01:18:52.948Z,78.65
2019-03-21T01:19:24.110Z,78.63
2019-03-21T01:19:55.560Z,78.61
2019-03-21T01:20:26.814Z,78.49
2019-03-21T01:20:58.027Z,78.62
2019-03-21T01:21:29.200Z,78.77
2019-03-21T01:22:00.388Z,78.65
2019-03-21T01:22:31.564Z,78.69
2019-03-21T01:23:02.752Z,78.67
2019-03-21T01:23:33.954Z,78.78
2019-03-21T01:24:06.170Z,78.83
2019-03-21T01:24:37.348Z,78.81
2019-03-21T01:25:26.720Z,78.88
2019-03-21T01:26:05.531Z,78.88
2019-03-21T01:26:36.759Z,78.93
2019-03-21T01:27:07.947Z,79.00
2019-03-21T01:27:39.118Z,79.18
2019-03-21T01:28:10.305Z,79.02
2019-03-21T01:28:41.471Z,79.02
2019-03-21T01:29:12.655Z,79.08
2019-03-21T01:29:43.849Z,79.09
2019-03-21T01:30:18.127Z,79.11
2019-03-21T01:30:49.311Z,79.23
2019-03-21T01:31:20.487Z,79.20
2019-03-21T01:31:54.599Z,79.22
2019-03-21T01:32:25.811Z,79.33
2019-03-21T01:32:57.054Z,79.32
2019-03-21T01:33:28.506Z,79.25
2019-03-21T01:33:59.733Z,79.20
2019-03-21T01:34:30.954Z,79.29
2019-03-21T01:35:03.896Z,79.21
2019-03-21T01:35:36.631Z,79.14
2019-03-21T01:36:07.880Z,79.25
2019-03-21T01:36:39.096Z,79.27
2019-03-21T01:37:10.245Z,79.25
2019-03-21T01:37:41.463Z,79.28
2019-03-21T01:38:12.607Z,79.25
2019-03-21T01:38:43.821Z,79.39
2019-03-21T01:39:14.968Z,79.38
2019-03-21T01:39:46.176Z,79.33
2019-03-21T01:40:28.955Z,79.40
2019-03-21T01:41:13.637Z,79.40
2019-03-21T01:41:44.833Z,79.45
2019-03-21T01:42:16.074Z,79.41
2019-03-21T01:42:47.323Z,79.39
2019-03-21T01:43:19.248Z,79.46
2019-03-21T01:43:50.491Z,79.51
2019-03-21T01:44:22.828Z,79.44
2019-03-21T01:44:54.050Z,79.49
2019-03-21T01:45:25.628Z,79.57
2019-03-21T01:45:57.164Z,79.57
2019-03-21T01:46:28.481Z,79.57
2019-03-21T01:46:59.701Z,79.56
2019-03-21T01:47:30.868Z,79.53
2019-03-21T01:48:02.077Z,79.48
2019-03-21T01:48:33.232Z,79.33
2019-03-21T01:49:04.451Z,79.56
2019-03-21T01:49:35.599Z,79.49
2019-03-21T01:50:12.007Z,79.58
2019-03-21T01:50:43.181Z,79.56
2019-03-21T01:51:14.399Z,79.59
2019-03-21T01:51:46.044Z,79.59
2019-03-21T01:52:17.355Z,79.32
2019-03-21T01:52:48.525Z,79.61
2019-03-21T01:53:19.743Z,79.61
2019-03-21T01:53:53.306Z,79.39
2019-03-21T01:54:24.513Z,79.35
2019-03-21T01:54:55.687Z,79.62
2019-03-21T01:55:26.895Z,79.53
2019-03-21T01:55:58.280Z,79.38
2019-03-21T01:56:30.161Z,79.53
2019-03-21T01:57:01.339Z,79.48
2019-03-21T01:57:32.488Z,79.49
2019-03-21T01:58:03.995Z,79.57
2019-03-21T01:58:35.156Z,79.59
2019-03-21T01:59:06.402Z,79.61
2019-03-21T01:59:37.560Z,79.65
2019-03-21T02:00:18.200Z,79.66
2019-03-21T02:00:54.888Z,79.66
2019-03-21T02:01:26.080Z,79.67
2019-03-21T02:01:57.260Z,79.57
2019-03-21T02:02:28.564Z,79.57
2019-03-21T02:03:00.745Z,79.81
2019-03-21T02:03:31.951Z,79.79
2019-03-21T02:04:03.112Z,79.86
2019-03-21T02:04:34.304Z,79.77
2019-03-21T02:05:09.164Z,79.80
2019-03-21T02:05:40.360Z,79.78
2019-03-21T02:06:11.524Z,79.86
2019-03-21T02:06:42.720Z,79.80
2019-03-21T02:07:13.904Z,79.83
2019-03-21T02:07:45.100Z,79.92
2019-03-21T02:08:16.303Z,80.00
2019-03-21T02:08:47.478Z,79.89
2019-03-21T02:09:18.660Z,79.87
2019-03-21T02:09:49.845Z,79.89
2019-03-21T02:10:21.025Z,80.04
2019-03-21T02:10:52.205Z,79.97
2019-03-21T02:11:23.400Z,79.82
2019-03-21T02:11:54.891Z,80.03
2019-03-21T02:12:26.077Z,80.05
2019-03-21T02:12:57.256Z,80.00
2019-03-21T02:13:28.439Z,80.09
2019-03-21T02:13:59.619Z,80.13
2019-03-21T02:14:30.805Z,80.16
2019-03-21T02:15:02.049Z,80.13
2019-03-21T02:15:33.301Z,80.13
2019-03-21T02:16:04.475Z,80.00
2019-03-21T02:16:35.662Z,80.09
2019-03-21T02:17:06.882Z,80.13
2019-03-21T02:17:38.051Z,80.26
2019-03-21T02:18:10.223Z,80.33
2019-03-21T02:18:41.504Z,80.15
2019-03-21T02:19:12.698Z,80.26
2019-03-21T02:19:43.898Z,80.19
2019-03-21T02:20:17.484Z,80.26
2019-03-21T02:20:48.651Z,80.30
2019-03-21T02:21:19.845Z,80.32
2019-03-21T02:21:51.079Z,80.34
2019-03-21T02:22:23.289Z,80.39
2019-03-21T02:22:54.504Z,80.38
2019-03-21T02:23:25.771Z,80.31
2019-03-21T02:23:56.934Z,80.38
2019-03-21T02:24:28.484Z,80.39
2019-03-21T02:24:59.660Z,80.48
2019-03-21T02:25:45.238Z,80.47
2019-03-21T02:26:16.431Z,80.48
2019-03-21T02:26:47.627Z,80.56
2019-03-21T02:27:18.832Z,80.52
2019-03-21T02:27:50.011Z,80.51
2019-03-21T02:28:21.162Z,80.54
2019-03-21T02:28:52.408Z,80.50
2019-03-21T02:29:23.567Z,80.50
2019-03-21T02:29:54.791Z,80.46
2019-03-21T02:30:44.536Z,80.52
2019-03-21T02:31:15.748Z,80.44
2019-03-21T02:31:47.012Z,80.77
2019-03-21T02:32:18.237Z,80.77
2019-03-21T02:32:53.662Z,80.57
2019-03-21T02:33:33.075Z,80.55
2019-03-21T02:34:04.706Z,80.54
2019-03-21T02:34:35.953Z,80.49
2019-03-21T02:35:07.198Z,80.49
2019-03-21T02:35:38.518Z,80.60
2019-03-21T02:36:12.242Z,80.57
2019-03-21T02:36:43.803Z,80.53
2019-03-21T02:37:15.043Z,80.76
2019-03-21T02:37:46.254Z,80.66
2019-03-21T02:38:17.394Z,80.66
2019-03-21T02:38:48.613Z,80.62
2019-03-21T02:39:19.775Z,80.64
2019-03-21T02:39:59.581Z,80.61
2019-03-21T02:40:24.969Z,80.57
2019-03-21T02:41:07.268Z,80.88
2019-03-21T02:41:38.471Z,80.88
2019-03-21T02:42:10.679Z,80.65
2019-03-21T02:42:41.905Z,80.79
2019-03-21T02:43:14.134Z,80.79
2019-03-21T02:43:45.384Z,80.76
2019-03-21T02:44:16.613Z,80.79
2019-03-21T02:44:47.891Z,80.78
2019-03-21T02:45:19.414Z,81.08
2019-03-21T02:45:50.817Z,81.08
2019-03-21T02:46:22.044Z,80.83
2019-03-21T02:46:53.275Z,80.93
2019-03-21T02:47:24.907Z,80.89
2019-03-21T02:47:56.121Z,80.79
2019-03-21T02:48:27.270Z,80.85
2019-03-21T02:48:58.482Z,80.81
2019-03-21T02:49:29.649Z,80.78
2019-03-21T02:50:00.920Z,80.76
2019-03-21T02:50:39.743Z,80.76
2019-03-21T02:51:10.958Z,80.75
2019-03-21T02:51:42.119Z,80.69
2019-03-21T02:52:13.330Z,80.71
2019-03-21T02:52:44.612Z,80.71
2019-03-21T02:53:15.835Z,80.75
2019-03-21T02:53:46.980Z,80.71
2019-03-21T02:54:18.165Z,80.67
2019-03-21T02:54:49.343Z,80.62
2019-03-21T02:55:21.314Z,80.61
2019-03-21T02:55:52.607Z,80.62
2019-03-21T02:56:25.097Z,80.60
2019-03-21T02:56:56.306Z,80.67
2019-03-21T02:57:27.876Z,80.65
2019-03-21T02:57:59.064Z,80.63
2019-03-21T02:58:31.070Z,80.62
2019-03-21T02:59:02.274Z,80.62
2019-03-21T02:59:33.468Z,80.62
2019-03-21T03:00:15.846Z,80.58
2019-03-21T03:00:47.044Z,80.54
2019-03-21T03:01:18.220Z,80.54
2019-03-21T03:01:49.419Z,80.49
2019-03-21T03:02:20.588Z,80.52
2019-03-21T03:02:54.810Z,80.38
2019-03-21T03:03:26.009Z,80.34
2019-03-21T03:03:57.193Z,80.39
2019-03-21T03:04:28.383Z,80.36
2019-03-21T03:04:59.578Z,80.28
2019-03-21T03:05:32.449Z,80.29
2019-03-21T03:06:03.637Z,80.29
2019-03-21T03:06:34.831Z,80.41
2019-03-21T03:07:06.015Z,80.36
2019-03-21T03:07:37.245Z,80.30
2019-03-21T03:08:08.753Z,80.26
2019-03-21T03:08:39.925Z,80.29
2019-03-21T03:09:11.146Z,80.26
2019-03-21T03:09:42.308Z,80.25
2019-03-21T03:10:21.568Z,80.30
2019-03-21T03:10:59.413Z,80.36
2019-03-21T03:11:30.694Z,80.35
2019-03-21T03:12:01.905Z,80.31
2019-03-21T03:12:33.110Z,80.29
2019-03-21T03:13:04.315Z,80.29
2019-03-21T03:13:36.284Z,80.28
2019-03-21T03:14:07.457Z,80.33
2019-03-21T03:14:38.711Z,80.30
2019-03-21T03:15:22.587Z,80.33
2019-03-21T03:15:48.376Z,80.34
2019-03-21T03:16:21.850Z,80.28
2019-03-21T03:16:53.148Z,80.27
2019-03-21T03:17:24.304Z,80.27
2019-03-21T03:17:55.514Z,80.29
2019-03-21T03:18:26.720Z,80.33
2019-03-21T03:18:57.974Z,80.32
2019-03-21T03:19:29.143Z,80.31
2019-03-21T03:20:00.638Z,80.31
2019-03-21T03:20:31.909Z,80.32
2019-03-21T03:21:03.119Z,80.32
2019-03-21T03:21:34.307Z,80.38
2019-03-21T03:22:05.492Z,80.33
2019-03-21T03:22:36.669Z,80.38
2019-03-21T03:23:07.851Z,80.44
2019-03-21T03:23:39.033Z,80.44
2019-03-21T03:24:10.282Z,80.40
2019-03-21T03:24:41.474Z,80.41
2019-03-21T03:25:19.356Z,80.37
2019-03-21T03:25:51.412Z,80.24
2019-03-21T03:26:22.804Z,80.32
2019-03-21T03:26:53.975Z,80.32
2019-03-21T03:27:25.327Z,80.32
2019-03-21T03:28:04.921Z,80.37
2019-03-21T03:28:43.245Z,80.33
2019-03-21T03:29:14.385Z,80.36
2019-03-21T03:29:45.595Z,80.37
2019-03-21T03:30:20.749Z,80.30
2019-03-21T03:30:57.031Z,80.38
2019-03-21T03:31:28.329Z,80.24
2019-03-21T03:31:59.545Z,80.17
2019-03-21T03:32:32.013Z,80.15
2019-03-21T03:33:03.257Z,80.12
2019-03-21T03:33:34.471Z,80.01
2019-03-21T03:34:05.843Z,80.05
2019-03-21T03:34:38.164Z,80.03
2019-03-21T03:35:11.705Z,80.01
2019-03-21T03:35:43.124Z,80.01
2019-03-21T03:36:15.161Z,80.02
2019-03-21T03:36:46.413Z,80.04
2019-03-21T03:37:17.692Z,80.02
2019-03-21T03:37:48.976Z,80.08
2019-03-21T03:38:20.221Z,80.03
2019-03-21T03:38:51.445Z,80.04
2019-03-21T03:39:22.609Z,80.06
2019-03-21T03:39:53.831Z,80.06
2019-03-21T03:40:52.864Z,80.08
2019-03-21T03:41:25.391Z,79.95
2019-03-21T03:41:56.553Z,79.98
2019-03-21T03:42:27.890Z,79.95
2019-03-21T03:42:59.055Z,79.95
2019-03-21T03:43:30.404Z,79.97
2019-03-21T03:44:01.651Z,79.93
2019-03-21T03:44:33.896Z,79.91
2019-03-21T03:45:36.547Z,79.90
2019-03-21T03:45:58.479Z,79.83
2019-03-21T03:46:29.708Z,79.86
2019-03-21T03:47:00.937Z,79.94
2019-03-21T03:47:32.169Z,79.95
2019-03-21T03:48:04.051Z,79.97
2019-03-21T03:48:35.352Z,79.98
2019-03-21T03:49:06.581Z,80.06
2019-03-21T03:49:37.809Z,80.06
2019-03-21T03:50:10.021Z,80.07
2019-03-21T03:50:41.202Z,80.03
2019-03-21T03:51:12.429Z,79.97
2019-03-21T03:51:43.557Z,80.00
2019-03-21T03:52:14.778Z,80.01
2019-03-21T03:52:45.921Z,80.01
2019-03-21T03:53:17.422Z,80.01
2019-03-21T03:53:48.629Z,79.96
2019-03-21T03:54:19.938Z,79.94
2019-03-21T03:54:51.110Z,79.96
2019-03-21T03:55:22.389Z,79.98
2019-03-21T03:55:53.571Z,79.63
2019-03-21T03:56:24.847Z,79.92
2019-03-21T03:56:56.012Z,79.87
2019-03-21T03:57:28.246Z,79.87
2019-03-21T03:58:24.036Z,79.88
2019-03-21T03:59:00.945Z,79.94
2019-03-21T03:59:32.123Z,79.80
2019-03-21T04:00:08.991Z,79.75
2019-03-21T04:00:40.169Z,79.74
2019-03-21T04:01:11.354Z,79.74
2019-03-21T04:01:42.539Z,79.80
2019-03-21T04:02:13.727Z,79.74
2019-03-21T04:02:46.934Z,79.70
2019-03-21T04:03:18.220Z,79.72
2019-03-21T04:03:49.387Z,79.64
2019-03-21T04:04:20.583Z,79.74
2019-03-21T04:04:51.750Z,79.76
2019-03-21T04:05:23.252Z,79.78
2019-03-21T04:05:54.899Z,79.83
2019-03-21T04:06:26.085Z,79.83
2019-03-21T04:06:57.274Z,79.83
2019-03-21T04:07:28.463Z,79.54
2019-03-21T04:07:59.680Z,79.54
2019-03-21T04:08:30.868Z,79.84
2019-03-21T04:09:04.262Z,79.83
2019-03-21T04:09:35.450Z,79.84
2019-03-21T04:10:31.885Z,79.77
2019-03-21T04:11:03.186Z,79.75
2019-03-21T04:11:34.374Z,79.75
2019-03-21T04:12:05.578Z,79.58
2019-03-21T04:12:36.755Z,79.49
2019-03-21T04:13:07.933Z,79.45
2019-03-21T04:13:39.129Z,79.34
2019-03-21T04:14:10.401Z,79.33
2019-03-21T04:14:41.629Z,79.33
2019-03-21T04:15:13.975Z,79.22
2019-03-21T04:15:52.416Z,79.21
2019-03-21T04:16:18.257Z,79.08
2019-03-21T04:16:49.461Z,79.11
2019-03-21T04:17:20.625Z,79.18
2019-03-21T04:17:51.867Z,79.17
2019-03-21T04:18:24.230Z,79.20
2019-03-21T04:18:55.481Z,79.13
2019-03-21T04:19:26.694Z,79.13
2019-03-21T04:19:57.879Z,79.18
2019-03-21T04:20:38.914Z,79.17
2019-03-21T04:21:12.786Z,79.17
2019-03-21T04:21:43.992Z,79.10
2019-03-21T04:22:15.189Z,79.26
2019-03-21T04:22:46.372Z,79.09
2019-03-21T04:23:23.141Z,79.04
2019-03-21T04:23:54.617Z,79.05
2019-03-21T04:24:26.159Z,79.04
2019-03-21T04:24:57.338Z,79.04
2019-03-21T04:25:36.650Z,79.00
2019-03-21T04:26:28.167Z,78.93
2019-03-21T04:26:59.356Z,78.90
2019-03-21T04:27:30.642Z,78.94
2019-03-21T04:28:01.825Z,78.93
2019-03-21T04:28:33.607Z,78.92
2019-03-21T04:29:04.772Z,78.96
2019-03-21T04:29:35.968Z,78.94
2019-03-21T04:30:16.109Z,78.97
2019-03-21T04:30:47.305Z,78.87
2019-03-21T04:31:18.498Z,78.88
2019-03-21T04:31:49.675Z,78.89
2019-03-21T04:32:21.005Z,78.91
2019-03-21T04:32:52.232Z,78.93
2019-03-21T04:33:23.535Z,78.92
2019-03-21T04:33:59.677Z,78.89
2019-03-21T04:34:30.870Z,78.90
2019-03-21T04:35:02.147Z,78.95
2019-03-21T04:35:33.479Z,79.09
2019-03-21T04:36:04.692Z,78.92
2019-03-21T04:36:35.928Z,78.90
2019-03-21T04:37:07.162Z,78.85
2019-03-21T04:37:38.398Z,78.89
2019-03-21T04:38:09.757Z,78.99
2019-03-21T04:38:41.361Z,78.86
2019-03-21T04:39:12.595Z,78.93
2019-03-21T04:39:43.825Z,78.94
2019-03-21T04:40:17.887Z,78.92
2019-03-21T04:40:49.092Z,78.96
2019-03-21T04:41:20.247Z,78.92
2019-03-21T04:41:51.455Z,78.97
2019-03-21T04:42:22.613Z,78.95
2019-03-21T04:42:53.826Z,78.94
2019-03-21T04:43:24.979Z,78.91
2019-03-21T04:43:56.175Z,78.92
2019-03-21T04:44:27.344Z,78.86
2019-03-21T04:44:58.610Z,78.88
2019-03-21T04:45:29.828Z,78.94
2019-03-21T04:46:03.683Z,78.95
2019-03-21T04:46:34.082Z,78.92
2019-03-21T04:47:05.284Z,78.95
2019-03-21T04:47:36.444Z,78.92
2019-03-21T04:48:07.675Z,78.93
2019-03-21T04:48:38.828Z,78.94
2019-03-21T04:49:10.036Z,78.92
2019-03-21T04:49:41.236Z,79.10
2019-03-21T04:50:19.878Z,78.97
2019-03-21T04:50:51.044Z,78.97
2019-03-21T04:51:22.250Z,78.91
2019-03-21T04:51:53.406Z,78.94
2019-03-21T04:52:24.731Z,78.79
2019-03-21T04:52:55.924Z,78.77
2019-03-21T04:53:27.126Z,78.77
2019-03-21T04:53:58.279Z,78.76
2019-03-21T04:54:29.498Z,78.79
2019-03-21T04:55:00.686Z,78.79
2019-03-21T04:55:31.875Z,78.82
2019-03-21T04:56:03.092Z,78.81
2019-03-21T04:56:34.321Z,78.79
2019-03-21T04:57:06.535Z,78.82
2019-03-21T04:57:37.693Z,78.71
2019-03-21T04:58:08.900Z,78.82
2019-03-21T04:58:40.096Z,78.83
2019-03-21T04:59:11.311Z,78.89
2019-03-21T04:59:42.471Z,78.95
2019-03-21T05:00:24.862Z,78.96
2019-03-21T05:00:57.041Z,78.99
2019-03-21T05:01:28.371Z,78.89
2019-03-21T05:01:59.542Z,79.04
2019-03-21T05:02:30.768Z,79.05
2019-03-21T05:03:06.943Z,79.04
2019-03-21T05:03:38.185Z,79.06
2019-03-21T05:04:09.332Z,79.12
2019-03-21T05:04:40.529Z,79.11
2019-03-21T05:05:12.899Z,79.06
2019-03-21T05:05:44.079Z,79.05
2019-03-21T05:06:15.260Z,79.08
2019-03-21T05:06:46.436Z,78.99
2019-03-21T05:07:17.610Z,79.09
2019-03-21T05:07:48.802Z,79.10
2019-03-21T05:08:19.984Z,79.03
2019-03-21T05:08:51.956Z,78.99
2019-03-21T05:09:23.174Z,78.95
2019-03-21T05:09:54.382Z,78.92
2019-03-21T05:10:25.566Z,78.87
2019-03-21T05:10:56.736Z,78.92
2019-03-21T05:11:28.153Z,78.94
2019-03-21T05:11:59.334Z,78.95
2019-03-21T05:12:30.539Z,79.16
2019-03-21T05:13:01.734Z,78.95
2019-03-21T05:13:32.922Z,79.03
2019-03-21T05:14:04.128Z,79.01
2019-03-21T05:14:35.330Z,78.93
2019-03-21T05:15:11.249Z,78.97
2019-03-21T05:15:45.823Z,78.97
2019-03-21T05:16:17.034Z,78.90
2019-03-21T05:16:48.199Z,78.77
2019-03-21T05:17:19.417Z,78.73
2019-03-21T05:17:55.176Z,78.62
2019-03-21T05:18:34.734Z,78.71
2019-03-21T05:19:05.895Z,78.58
2019-03-21T05:19:37.104Z,78.59
2019-03-21T05:20:15.493Z,78.50
2019-03-21T05:20:47.682Z,78.53
2019-03-21T05:21:21.839Z,78.54
2019-03-21T05:21:53.043Z,78.44
2019-03-21T05:22:24.215Z,78.45
2019-03-21T05:22:56.852Z,78.41
2019-03-21T05:23:28.083Z,78.36
2019-03-21T05:23:59.287Z,78.31
2019-03-21T05:24:30.447Z,78.20
2019-03-21T05:25:01.658Z,78.29
2019-03-21T05:25:32.844Z,78.40
2019-03-21T05:26:04.388Z,78.45
2019-03-21T05:26:35.618Z,78.25
2019-03-21T05:27:06.854Z,78.07
2019-03-21T05:27:38.096Z,78.14
2019-03-21T05:28:09.334Z,78.10
2019-03-21T05:28:40.565Z,78.11
2019-03-21T05:29:11.786Z,78.00
2019-03-21T05:29:43.018Z,78.08
2019-03-21T05:30:28.653Z,78.09
2019-03-21T05:31:10.732Z,78.08
2019-03-21T05:31:41.897Z,78.09
2019-03-21T05:32:13.130Z,78.07
2019-03-21T05:32:44.296Z,78.08
2019-03-21T05:33:15.518Z,78.02
2019-03-21T05:33:46.680Z,77.99
2019-03-21T05:34:17.904Z,77.94
2019-03-21T05:34:49.058Z,77.96
2019-03-21T05:35:20.285Z,78.02
2019-03-21T05:35:51.963Z,78.06
2019-03-21T05:36:23.239Z,78.05
2019-03-21T05:36:54.943Z,78.03
2019-03-21T05:37:26.618Z,78.00
2019-03-21T05:37:58.101Z,78.00
2019-03-21T05:38:31.628Z,78.07
2019-03-21T05:39:07.355Z,77.99
2019-03-21T05:39:38.586Z,78.03
2019-03-21T05:40:15.746Z,78.09
2019-03-21T05:40:47.952Z,78.07
2019-03-21T05:41:19.128Z,78.07
2019-03-21T05:41:50.365Z,78.04
2019-03-21T05:42:21.598Z,78.09
2019-03-21T05:43:07.641Z,78.14
2019-03-21T05:43:47.225Z,78.17
2019-03-21T05:44:35.752Z,78.31
2019-03-21T05:45:12.670Z,78.23
2019-03-21T05:45:43.945Z,78.26
2019-03-21T05:46:26.105Z,78.27
2019-03-21T05:46:50.919Z,78.31
2019-03-21T05:47:22.221Z,78.27
2019-03-21T05:47:53.411Z,78.20
2019-03-21T05:48:24.825Z,78.15
2019-03-21T05:48:56.999Z,78.05
2019-03-21T05:49:28.236Z,78.04
2019-03-21T05:49:59.415Z,78.01
2019-03-21T05:50:30.620Z,78.03
2019-03-21T05:51:01.803Z,78.03
2019-03-21T05:51:32.965Z,78.01
2019-03-21T05:52:05.079Z,78.12
2019-03-21T05:52:36.341Z,78.03
2019-03-21T05:53:07.571Z,77.96
2019-03-21T05:53:38.724Z,77.76
2019-03-21T05:54:09.936Z,77.65
2019-03-21T05:54:41.088Z,77.55
2019-03-21T05:55:12.280Z,77.64
2019-03-21T05:55:43.481Z,77.58
2019-03-21T05:56:14.673Z,77.58
2019-03-21T05:56:45.806Z,77.55
2019-03-21T05:57:17.010Z,77.57
2019-03-21T05:57:48.197Z,77.42
2019-03-21T05:58:19.422Z,77.34
2019-03-21T05:58:50.620Z,77.39
2019-03-21T05:59:21.830Z,77.25
2019-03-21T05:59:52.997Z,77.00
2019-03-21T06:00:31.394Z,77.16
2019-03-21T06:01:12.167Z,77.12
2019-03-21T06:01:43.333Z,76.99
2019-03-21T06:02:14.517Z,76.94
2019-03-21T06:02:45.679Z,77.05
2019-03-21T06:03:30.773Z,76.93
2019-03-21T06:04:01.959Z,76.65
2019-03-21T06:04:35.043Z,76.77
2019-03-21T06:05:06.195Z,76.84
2019-03-21T06:05:41.166Z,76.77
2019-03-21T06:06:18.129Z,76.62
2019-03-21T06:07:13.033Z,76.57
2019-03-21T06:07:52.495Z,76.54
2019-03-21T06:08:30.840Z,76.50
2019-03-21T06:09:02.125Z,76.58
2019-03-21T06:09:33.714Z,76.47
2019-03-21T06:10:13.181Z,76.43
2019-03-21T06:10:45.772Z,76.31
2019-03-21T06:11:16.969Z,76.26
2019-03-21T06:11:59.165Z,76.26
2019-03-21T06:12:36.041Z,76.23
2019-03-21T06:13:07.220Z,76.14
2019-03-21T06:13:38.442Z,76.17
2019-03-21T06:14:09.641Z,76.01
2019-03-21T06:14:55.166Z,75.87
2019-03-21T06:15:33.922Z,76.12
2019-03-21T06:16:04.791Z,75.94
2019-03-21T06:16:37.883Z,75.97
2019-03-21T06:17:09.143Z,75.89
2019-03-21T06:17:40.306Z,75.66
2019-03-21T06:18:26.204Z,75.68
2019-03-21T06:19:21.142Z,75.71
2019-03-21T06:20:04.150Z,75.85
2019-03-21T06:21:02.119Z,75.86
2019-03-21T06:21:53.656Z,75.76
2019-03-21T06:22:33.663Z,75.79
2019-03-21T06:23:31.865Z,75.86
2019-03-21T06:24:46.190Z,75.59
2019-03-21T06:25:25.814Z,75.86
2019-03-21T06:26:30.057Z,75.62
2019-03-21T06:27:28.031Z,75.33
2019-03-21T06:27:59.237Z,75.23
2019-03-21T06:28:31.148Z,75.39
2019-03-21T06:29:02.344Z,75.33
2019-03-21T06:29:33.533Z,75.30
2019-03-21T06:30:06.828Z,75.13
2019-03-21T06:30:38.027Z,75.10
2019-03-21T06:31:09.191Z,74.96
2019-03-21T06:31:40.386Z,74.76
2019-03-21T06:32:13.040Z,74.74
2019-03-21T06:32:44.474Z,74.90
2019-03-21T06:33:15.699Z,74.67
2019-03-21T06:33:46.914Z,74.56
2019-03-21T06:34:18.147Z,74.33
2019-03-21T06:34:49.409Z,74.33
2019-03-21T06:35:20.654Z,74.33
2019-03-21T06:35:51.898Z,74.26
2019-03-21T06:36:23.184Z,74.23
2019-03-21T06:36:54.838Z,74.29
2019-03-21T06:37:28.447Z,74.30
2019-03-21T06:37:59.131Z,74.19
2019-03-21T06:38:30.383Z,74.21
2019-03-21T06:39:01.621Z,74.26
2019-03-21T06:39:34.259Z,74.31
2019-03-21T06:40:05.520Z,74.14
2019-03-21T06:40:36.760Z,74.01
2019-03-21T06:41:07.993Z,74.22
2019-03-21T06:41:39.240Z,74.27
2019-03-21T06:42:10.462Z,74.10
2019-03-21T06:42:42.670Z,74.16
2019-03-21T06:43:13.854Z,73.92
2019-03-21T06:43:45.087Z,73.91
2019-03-21T06:44:16.309Z,73.95
2019-03-21T06:44:47.560Z,73.83
2019-03-21T06:45:18.800Z,73.60
2019-03-21T06:45:50.058Z,73.69
2019-03-21T06:46:21.331Z,73.83
2019-03-21T06:46:52.630Z,74.08
2019-03-21T06:47:23.889Z,73.98
2019-03-21T06:47:56.564Z,74.00
2019-03-21T06:48:27.741Z,73.84
2019-03-21T06:48:58.973Z,73.83
2019-03-21T06:49:30.216Z,73.81
2019-03-21T06:50:01.465Z,73.64
2019-03-21T06:50:32.707Z,73.52
2019-03-21T06:51:03.953Z,73.62
2019-03-21T06:51:35.245Z,73.62
2019-03-21T06:52:06.525Z,73.62
2019-03-21T06:52:38.780Z,73.63
2019-03-21T06:53:09.971Z,73.57
2019-03-21T06:53:41.130Z,73.45
2019-03-21T06:54:12.329Z,73.57
2019-03-21T06:54:43.487Z,73.66
2019-03-21T06:55:14.706Z,73.54
2019-03-21T06:55:45.871Z,73.60
2019-03-21T06:56:17.073Z,73.49
2019-03-21T06:56:49.250Z,73.39
2019-03-21T06:57:20.435Z,73.03
2019-03-21T06:57:51.592Z,73.25
2019-03-21T06:58:22.779Z,73.24
2019-03-21T06:58:53.954Z,73.34
2019-03-21T06:59:25.221Z,73.23
2019-03-21T06:59:56.522Z,73.19
2019-03-21T07:00:27.694Z,73.33
2019-03-21T07:00:58.880Z,73.51
2019-03-21T07:01:30.054Z,73.46
2019-03-21T07:02:01.244Z,73.45
2019-03-21T07:02:32.408Z,73.39